AirNav   Phillips 66 Aviation Fuel
 
 1214 users online  

55S Packwood Airport
Packwood, Washington, USA


FAA INFORMATION EFFECTIVE 01 FEBRUARY 2018

Location

FAA Identifier: 55S
Lat/Long: 46-36-14.9840N / 121-40-40.4390W
46-36.249733N / 121-40.673983W
46.6041622 / -121.6778997
(estimated)
Elevation: 1057 ft. / 322 m (estimated)
Variation: 20E (1985)
Time zone: UTC -8 (UTC -7 during Daylight Saving Time)
Zip code: 98361

Airport Operations

Airport use: Open to the public
Activation date: 09/1948
Control tower: no
ARTCC: SEATTLE CENTER
FSS: SEATTLE FLIGHT SERVICE STATION
NOTAMs facility: SEA (NOTAM-D service available)
Attendance: UNATNDD
Wind indicator: lighted
Segmented circle: no
Lights: ACTVT MIRL RY 01/19 - CTAF-122.9.
Beacon: white-green (lighted land airport)
ACTVT BCN - CTAF-122.9.

Airport Communications

CTAF: 122.9

Airport Services

Parking: tiedowns
Airframe service: NONE
Powerplant service: NONE
Bottled oxygen: NONE
Bulk oxygen: NONE

Runway Information

Runway 1/19

Dimensions: 2356 x 38 ft. / 718 x 12 m
Surface: asphalt, in fair condition
Runway edge lights: medium intensity
Runway edge markings: RY 19 PAINT FADED AND CHIPPED.
Operational restrictions: RY 01/19 SOFT SHOULDERS BOTH SIDES; USE RY FOR BACK TAXI.
RUNWAY 1  RUNWAY 19
Latitude: 46-36.079850N46-36.419595N
Longitude: 121-40.809333W121-40.538632W
Elevation: 1049.0 ft.1057.0 ft.
Traffic pattern: leftleft
Markings: basic, in poor conditionbasic, in poor condition
Obstructions: 5 ft. fence, 200 ft. from runway
RWY 01 +5' FENCE AT 140' AND -5' DITCH AT 155' FROM THR.
40 ft. trees, 200 ft. from runway, 125 ft. right of centerline
+4' FENCE AT 120', 0' PAVED ROAD AT 130' AND 33' TREES 113'-200' FR THR 100'R.

Airport Ownership and Management from official FAA records

Ownership: Publicly-owned
Owner: LEWIS COUNTY
2025 NE KRESKY AVE
CHEHALIS, WA 98532
Phone 360-740-2606
Manager: LARRY MASON
826 CINEBAR ROAD
CINEBAR, WA 98533-9732
Phone 360-269-6727

Airport Operational Statistics

Aircraft based on the field: 3
Single engine airplanes: 2
Ultralights: 1
    
Aircraft operations: avg 24/day *
80% transient general aviation
17% local general aviation
3% military
* for 12-month period ending 31 July 2015

Additional Remarks

TREES AND BLDGS IN TRANSITIONAL SURFACES.
TREES & FENCES IN PRIM SFC.

Instrument Procedures

There are no published instrument procedures at 55S.

Some nearby airports with instrument procedures:

KPLU - Pierce County Airport - Thun Field (39 nm NW)
KTCM - McChord Field Airport (Joint Base Lewis-McChord) (46 nm NW)
KGRF - Gray Army Airfield (Joint Base Lewis-McChord) (47 nm NW)
KYKM - Yakima Air Terminal/McAllister Field (47 nm E)
KTDO - Ed Carlson Memorial Field - South Lewis Co Airport (47 nm W)
 
Loc | Ops | Rwys | IFR | FBO | Links
Com | Nav | Svcs | Stats | Notes

AirNav Hotels Sweepstakes
 
Area around 55S (Packwood Airport)
 
Road maps at: MapQuest Bing Google
 
Aerial photo
WARNING: Photo may not be current or correct
Aerial photo of 55S (Packwood Airport)
Photo taken 22-Feb-2015
looking southeast.

Do you have a better or more recent aerial photo of Packwood Airport that you would like to share? If so, please send us your photo.

 
Sectional chart

 
Airport distance calculator
Flying to Packwood Airport? Find the distance to fly.

From to 55S

Sunrise and sunset
Times for 20-Feb-2018
 Local
(UTC-8)
 Zulu
(UTC)
Morning civil twilight06:3214:32
Sunrise07:0315:03
Sunset17:3801:38
Evening civil twilight18:0902:09

Current date and time
Zulu (UTC)  21-Feb-2018 00:58:03
Local (UTC-8)  20-Feb-2018 16:58:03
 
METAR
KPLU 
39nm NW 
210035Z AUTO 00000KT 3SM -SN FEW008 SCT037 SCT042 00/M00 A3017 RMK AO2
KSMP 
43nm N 
210034Z AUTO VRB03KT 2SM BR FEW005 BKN032 OVC047 M09/M11 A2998 RMK AO2 P0001 T10891106 $
KTCM 
45nm NW 
210034Z 03006KT 8SM OVC036 00/00 A3018 RMK AO2A RAB00E10RAB12E34 SLP228 $
KGRF 
46nm NW 
210041Z 36006KT 3SM -SN BR SCT007 OVC020 00/00 A3018 RMK AO2A CIG 016V020 SLP228 $
KYKM 
47nm E 
210053Z 26004KT 3/4SM R27/5500VP6000FT -SN BR BKN009 OVC013 M02/M04 A3019 RMK AO2 CIG 008V013 SLPNO P0001 T10221044
TAF
KTCM 
45nm NW 
210021Z 2100/2203 35009KT 8000 -SHSN SCT007 BKN050 610508 QNH3015INS TEMPO 2100/2104 4800 -SHSN BKN015 610208 BECMG 2104/2105 35009KT 9999 NSW SCT015 QNH3022INS BECMG 2108/2109 VRB06KT 9999 SKC QNH3029INS BECMG 2117/2118 22006KT 9999 BKN140 QNH3030INS TX00/2100Z TNM03/2113Z
KGRF 
46nm NW 
210024Z 2100/2203 35009KT 1600 -SHSN BR FEW007 OVC015 610208 QNH3014INS TEMPO 2100/2104 4800 -SHSN SCT015 BKN020 610209 BECMG 2104/2105 35009KT 9999 NSW SCT015 QNH3022INS BECMG 2108/2109 VRB06KT 9999 SKC QNH3029INS BECMG 2117/2118 22006KT 9999 BKN140 QNH3030INS TX00/2100Z TNM03/2113Z
KYKM 
47nm E 
210025Z 2100/2124 VRB04KT 1SM -SN BR SCT017 BKN028 OVC035 TEMPO 2100/2104 4SM -SHSN SCT025 OVC040 FM210400 30003KT P6SM VCSH SCT025 OVC040 FM211000 30007KT P6SM SCT050 SCT100 FM211800 VRB05KT P6SM SCT100 BKN200
NOTAMs
Click for the latest NOTAMs
NOTAMs are issued by the DoD/FAA and will open in a separate window not controlled by AirNav.

 

 
 

Would you like to see your business listed on this page?

 If your business provides an interesting product or service to pilots, flight crews, aircraft, or users of the Packwood Airport, you should consider listing it here.  To start the listing process, click on the button below
 
Add a business
 

Other Pages about Packwood Airport

Update a link
 
Copyright © AirNav, LLC. All rights reserved. Privacy Policy  Contact